KHNB/HNB METAR and TAF weather

Enter ICAO airport designator
Station Type Date Time Source
KHNB METAR 2019/04/22 17:56 UTC NOAA

KHNB 221756Z AUTO 21012KT 10SM CLR 24/12 A3014 RMK AO2 SLP203 T02440122 10244 20106 58011


Station Type Date Time Source
KHNB Decoded METAR 2019/04/22 17:56 UTC NOAA

Huntingburg, IN, United States (KHNB) 38-15N 086-57W
Apr 22, 2019 - 01:56 PM EDT / 2019.04.22 1756 UTC
Wind: from the SSW (210 degrees) at 14 MPH (12 KT):0
Visibility: 10 mile(s):0
Sky conditions: clear
Temperature: 75.9 F (24.4 C)
Dew Point: 54.0 F (12.2 C)
Relative Humidity: 46%
Pressure (altimeter): 30.14 in. Hg (1020 hPa)
Pressure tendency: 0.03 inches (1.1 hPa) lower than three hours ago
ob: KHNB 221756Z AUTO 21012KT 10SM CLR 24/12 A3014 RMK AO2 SLP203 T02440122 10244 20106 58011
cycle: 18

Station Type Date Time Source
KHNB TAF 2019/04/22 18:21 UTC NOAA

TAF KHNB 221720Z 2218/2318 19011KT P6SM SCT250
FM231400 24010G15KT P6SM SCT025 BKN150

Example: see airport list